Greater Kankakee Airport Kankakee US
ICAO: KIKK
IATA: IKK
Category: Medium
Scheduled Services: No

Elevation: 630 ft
TransAlt. 18000 ft.

Airport Communications:
AWOS 3:111.6
CHICAGO CNTR:132.5
KANKAKEE RDO:122.2
CTAF/UNICOM:123

KIKK Zoom In..

If you have problems with the map follow the link
https://www.worldairports.se/pages/airport.php?
ICAO=KIKK

Runways:

(A) RW 04 length 5981 ft width 100 ft
ILS 108.70 / hdg 38

(B) RW 16 length 4398 ft width 75 ft
---- / hdg 161

(C) RW 22 length 5981 ft width 100 ft
---- / hdg 218

(D) RW 34 length 4398 ft width 75 ft
---- / hdg 341

Location; KIKK
Day. 23 / Time. 23.15 Zulu
* Altimeter: 30.03
* Temperature: 01° c. 33.8°f.
* Wind from: 130° Speed 06 kn.
Dewpoint: 00° c.
Visibility: 10 Statute Miles.
Clouds: Broken 2400 ft.
Clouds: Broken 3200 ft.
Clouds: Overcast 4800 ft.

KIKK 232315Z AUTO 13006KT 10SM BKN024 BKN032 OVC048 01/00 A3003 RMK AO2 T00100000


Wind From 130°
Speed 06 kn.

 
 
jpsmedia worldairports.se 2020   terms of use